| Date | Time | Temp. (oF) | Dew Point (oF) | Rel. Hum. (%) | Press. (in.) | Wind Dir. | Wind Speed (mph) | Hourly Rainfall (in.) |
|
|---|---|---|---|---|---|---|---|---|---|
| 1 | 02/15 | 00:00 | 35 | 25 | 69 | 29.67 | NW | 2 | 0.00 |
| 2 | 02/14 | 23:00 | 37 | 27 | 67 | 29.69 | NW | 4 | 0.00 |
| 3 | 02/14 | 22:00 | 36 | 26 | 67 | 29.71 | NW | 2 | 0.00 |
| 4 | 02/14 | 21:00 | 38 | 26 | 62 | 29.73 | NW | 4 | 0.00 |
| 5 | 02/14 | 20:00 | 40 | 25 | 56 | 29.73 | NW | 4 | 0.00 |
| 6 | 02/14 | 19:00 | 41 | 25 | 54 | 29.73 | NW | 5 | 0.00 |
| 7 | 02/14 | 18:00 | 42 | 26 | 55 | 29.75 | NW | 4 | 0.00 |
| 8 | 02/14 | 17:00 | 45 | 27 | 50 | 29.73 | NW | 13 | 0.00 |
| 9 | 02/14 | 16:00 | 46 | 24 | 43 | 29.74 | NW | 7 | 0.00 |
| 10 | 02/14 | 15:00 | 47 | 23 | 40 | 29.76 | NW | 8 | 0.00 |
| 11 | 02/14 | 14:00 | 45 | 22 | 41 | 29.79 | WNW | 5 | 0.00 |
| 12 | 02/14 | 13:00 | 40 | 24 | 54 | 29.83 | NW | 7 | 0.00 |
| 13 | 02/14 | 12:00 | 37 | 24 | 61 | 29.88 | NW | 8 | 0.00 |
| 14 | 02/14 | 11:00 | 35 | 24 | 64 | 29.93 | NW | 5 | 0.00 |
| 15 | 02/14 | 10:00 | 31 | 22 | 71 | 29.94 | NW | 2 | 0.00 |
| 16 | 02/14 | 09:00 | 29 | 22 | 77 | 29.97 | NW | 2 | 0.00 |
| 17 | 02/14 | 08:00 | 25 | 21 | 88 | 29.99 | NW | 0 | 0.00 |
| 18 | 02/14 | 07:00 | 24 | 20 | 86 | 29.99 | NW | 0 | 0.00 |
| 19 | 02/14 | 06:00 | 25 | 19 | 80 | 30.00 | NW | 0 | 0.00 |
| 20 | 02/14 | 05:00 | 26 | 19 | 76 | 29.99 | NW | 0 | 0.00 |
| 21 | 02/14 | 04:00 | 26 | 19 | 75 | 29.99 | NW | 2 | 0.00 |
| 22 | 02/14 | 03:00 | 26 | 19 | 75 | 30.00 | NW | 2 | 0.00 |
| 23 | 02/14 | 02:00 | 26 | 18 | 73 | 30.02 | NW | 2 | 0.00 |
| 24 | 02/14 | 01:00 | 26 | 18 | 72 | 30.01 | NW | 1 | 0.00 |